Time;durP1;ratioP1;P1;durP2;ratioP2;P2;SDS_P1;SDS_P2;PMS_P1;PMS_P2;Temp;Humidity;BMP_temperature;BMP_pressure;BME280_temperature;BME280_humidity;BME280_pressure;Samples;Min_cycle;Max_cycle;Signal;HPM_P1;HPM_P2
2023/01/28 00:02:14;;;;;;;20.17;12.93;;;5.70;99.90;;;;;;5015356;28;20104;-70
2023/01/28 00:04:39;;;;;;;17.23;12.25;;;5.80;99.90;;;;;;5015385;28;20034;-70
2023/01/28 00:07:05;;;;;;;18.90;11.95;;;5.80;99.90;;;;;;5005577;28;20148;-70
2023/01/28 00:09:30;;;;;;;17.33;11.57;;;5.80;99.90;;;;;;4995644;28;20030;-70
2023/01/28 00:11:56;;;;;;;15.48;10.30;;;5.60;99.90;;;;;;4995909;28;20113;-70
2023/01/28 00:14:22;;;;;;;19.08;11.57;;;5.70;99.90;;;;;;4995314;28;20529;-70
2023/01/28 00:16:47;;;;;;;17.00;11.40;;;5.70;99.90;;;;;;5002538;28;20026;-69
2023/01/28 00:19:13;;;;;;;16.85;11.00;;;5.70;99.90;;;;;;5002786;28;20034;-70
2023/01/28 00:21:39;;;;;;;16.30;11.23;;;5.60;99.90;;;;;;5006203;28;20086;-70
2023/01/28 00:24:05;;;;;;;17.52;12.13;;;5.60;99.90;;;;;;4995276;28;20022;-70
2023/01/28 00:26:31;;;;;;;17.75;12.43;;;5.70;99.90;;;;;;5006880;28;20072;-70
2023/01/28 00:28:57;;;;;;;17.65;11.93;;;5.70;99.90;;;;;;5013363;28;20034;-69
2023/01/28 00:31:26;;;;;;;16.70;11.45;;;5.60;99.90;;;;;;5014571;28;20034;-70
2023/01/28 00:33:52;;;;;;;17.58;11.52;;;5.60;99.90;;;;;;5014437;28;20057;-70
2023/01/28 00:36:20;;;;;;;15.23;10.93;;;5.60;99.90;;;;;;5014620;28;20029;-70
2023/01/28 00:38:50;;;;;;;17.85;11.25;;;5.60;99.90;;;;;;5014038;28;20018;-70
2023/01/28 00:41:20;;;;;;;16.95;11.77;;;5.60;99.90;;;;;;4994853;28;20026;-70
2023/01/28 00:43:47;;;;;;;19.13;11.77;;;5.50;99.90;;;;;;4995373;28;20054;-70
2023/01/28 00:46:13;;;;;;;16.10;11.48;;;5.40;99.90;;;;;;5005959;28;20518;-70
2023/01/28 00:48:40;;;;;;;17.38;11.43;;;5.50;99.90;;;;;;5009663;28;20106;-70
2023/01/28 00:51:08;;;;;;;18.38;11.95;;;5.60;99.90;;;;;;5005220;28;20417;-70
2023/01/28 00:53:35;;;;;;;18.65;11.32;;;5.60;99.90;;;;;;4994534;28;20386;-70
2023/01/28 00:56:00;;;;;;;18.48;12.25;;;5.50;99.90;;;;;;4995356;28;20085;-70
2023/01/28 00:58:26;;;;;;;17.98;11.70;;;5.50;99.90;;;;;;5008913;28;20511;-70
2023/01/28 01:00:52;;;;;;;17.05;11.88;;;5.60;99.90;;;;;;4994569;28;20093;-70
2023/01/28 01:03:18;;;;;;;20.20;11.73;;;5.50;99.90;;;;;;4994295;28;20023;-70
2023/01/28 01:05:45;;;;;;;19.40;12.45;;;5.50;99.90;;;;;;4993456;28;20022;-69
2023/01/28 01:08:11;;;;;;;18.75;12.05;;;5.50;99.90;;;;;;4992247;28;20109;-70
2023/01/28 01:10:37;;;;;;;18.23;12.07;;;5.40;99.90;;;;;;4995117;28;20106;-70
2023/01/28 01:13:05;;;;;;;17.75;11.57;;;5.50;99.90;;;;;;5000922;28;20019;-70
2023/01/28 01:15:31;;;;;;;19.23;12.38;;;5.50;99.90;;;;;;5009587;28;20386;-70
2023/01/28 01:17:57;;;;;;;19.75;12.50;;;5.50;99.90;;;;;;5004465;28;20038;-70
2023/01/28 01:20:27;;;;;;;19.02;11.65;;;5.50;99.90;;;;;;4996843;28;20041;-70
2023/01/28 01:22:53;;;;;;;19.60;11.70;;;5.50;99.90;;;;;;4995122;28;20640;-70
2023/01/28 01:25:19;;;;;;;19.30;11.38;;;5.60;99.90;;;;;;4994701;28;20022;-70
2023/01/28 01:27:47;;;;;;;20.15;11.90;;;5.60;99.90;;;;;;4994670;28;20025;-70
2023/01/28 01:30:14;;;;;;;18.42;11.25;;;5.60;99.90;;;;;;4993221;28;20402;-70
2023/01/28 01:32:40;;;;;;;18.45;11.63;;;5.60;99.90;;;;;;5005858;28;20026;-70
2023/01/28 01:35:07;;;;;;;18.08;11.57;;;5.60;99.90;;;;;;5013952;28;20041;-70
2023/01/28 01:37:33;;;;;;;18.33;11.77;;;5.60;99.90;;;;;;5013698;28;20014;-69
2023/01/28 01:40:00;;;;;;;18.73;11.57;;;5.60;99.90;;;;;;5012748;28;20033;-69
2023/01/28 01:42:26;;;;;;;19.23;11.90;;;5.60;99.90;;;;;;5013418;28;20489;-69
2023/01/28 01:44:59;;;;;;;20.75;12.45;;;5.60;99.90;;;;;;5013062;28;20026;-69
2023/01/28 01:47:52;;;;;;;21.65;11.55;;;5.60;99.90;;;;;;5013124;28;20018;-69
2023/01/28 01:50:38;;;;;;;;;;;5.70;99.90;;;;;;5013654;28;20038;-69
2023/01/28 01:53:17;;;;;;;19.48;11.65;;;5.60;99.90;;;;;;5012966;28;19911;-70
2023/01/28 01:55:47;;;;;;;20.48;12.88;;;5.60;99.90;;;;;;5028465;28;20091;-69
2023/01/28 01:58:15;;;;;;;17.58;11.48;;;5.60;99.90;;;;;;5013661;28;20041;-69
2023/01/28 02:00:44;;;;;;;19.10;11.68;;;5.50;99.90;;;;;;5013597;28;20033;-70
2023/01/28 02:03:10;;;;;;;17.45;11.98;;;5.60;99.90;;;;;;5009694;28;20077;-70
2023/01/28 02:05:37;;;;;;;18.70;11.90;;;5.60;99.90;;;;;;4993336;28;20062;-69
2023/01/28 02:08:21;;;;;;;19.90;12.35;;;5.50;99.90;;;;;;4993459;28;20136;-70
2023/01/28 02:10:58;;;;;;;18.92;12.02;;;5.50;99.90;;;;;;4993970;28;20087;-70
2023/01/28 02:13:27;;;;;;;17.30;11.30;;;5.50;99.90;;;;;;4993630;28;20030;-70
2023/01/28 02:15:54;;;;;;;17.75;11.07;;;5.50;99.90;;;;;;4998120;28;20026;-70
2023/01/28 02:18:20;;;;;;;18.92;12.25;;;5.50;99.90;;;;;;5012673;28;20506;-70
2023/01/28 02:21:07;;;;;;;21.27;11.68;;;5.50;99.90;;;;;;5011426;28;20026;-70
2023/01/28 02:23:52;;;;;;;19.30;12.48;;;5.50;99.90;;;;;;5012258;28;20026;-70
2023/01/28 02:26:43;;;;;;;17.27;10.75;;;5.40;99.90;;;;;;5013517;28;20026;-70
2023/01/28 02:29:37;;;;;;;16.90;10.27;;;5.50;99.90;;;;;;5011905;28;20026;-69
2023/01/28 02:32:12;;;;;;;17.20;10.85;;;5.40;99.90;;;;;;5012809;28;20404;-70
2023/01/28 02:34:53;;;;;;;18.10;11.15;;;5.50;99.90;;;;;;5011137;28;20057;-70
2023/01/28 02:37:24;;;;;;;17.88;11.77;;;5.40;99.90;;;;;;5012239;28;20032;-70
2023/01/28 02:40:07;;;;;;;18.75;11.43;;;5.40;99.90;;;;;;5011734;28;20033;-70
2023/01/28 02:42:36;;;;;;;17.13;10.95;;;5.50;99.90;;;;;;5013053;28;20030;-70
2023/01/28 02:45:02;;;;;;;16.98;10.98;;;5.50;99.90;;;;;;5013056;28;20437;-70
2023/01/28 02:50:16;;;;;;;19.75;12.02;;;5.50;99.90;;;;;;5013080;28;20096;-70
2023/01/28 02:56:03;;;;;;;16.13;10.55;;;5.50;99.90;;;;;;5017368;28;20048;-70
2023/01/28 03:02:00;;;;;;;19.63;12.27;;;5.40;99.90;;;;;;5019453;28;20409;-69
2023/01/28 03:04:33;;;;;;;20.98;12.60;;;5.40;99.90;;;;;;5018072;28;20026;-70
2023/01/28 03:07:04;;;;;;;19.60;13.10;;;5.40;99.90;;;;;;5018912;28;20053;-70
2023/01/28 03:09:30;;;;;;;19.08;12.68;;;5.30;99.90;;;;;;5018321;28;20110;-70
2023/01/28 03:38:21;;;;;;;18.08;11.43;;;5.30;99.90;;;;;;5016437;28;20037;-70
2023/01/28 03:41:01;;;;;;;19.83;12.90;;;5.20;99.90;;;;;;5017836;28;20037;-70
2023/01/28 03:43:29;;;;;;;17.63;11.82;;;5.30;99.90;;;;;;5018038;28;20050;-70
2023/01/28 03:45:55;;;;;;;17.45;11.45;;;5.10;99.90;;;;;;5017758;28;20026;-69
2023/01/28 03:48:24;;;;;;;17.98;11.40;;;5.20;99.90;;;;;;5018370;28;20402;-69
2023/01/28 03:50:50;;;;;;;20.30;11.98;;;5.10;99.90;;;;;;5018999;28;20045;-70
2023/01/28 03:53:17;;;;;;;19.10;11.85;;;5.10;99.90;;;;;;5019121;28;20076;-70
2023/01/28 03:55:45;;;;;;;21.95;12.70;;;5.10;99.90;;;;;;5018119;28;20466;-70
2023/01/28 03:58:12;;;;;;;20.73;12.48;;;5.10;99.90;;;;;;5016953;28;20109;-70
2023/01/28 04:00:40;;;;;;;21.83;12.88;;;5.20;99.90;;;;;;5018872;28;20064;-70
2023/01/28 04:03:17;;;;;;;19.88;12.05;;;5.10;99.90;;;;;;5019104;28;20014;-70
2023/01/28 04:05:42;;;;;;;22.15;13.43;;;5.20;99.90;;;;;;4998977;28;20026;-70
2023/01/28 04:08:08;;;;;;;21.45;12.70;;;5.30;99.90;;;;;;4994972;28;20467;-70
2023/01/28 04:10:33;;;;;;;20.35;12.30;;;5.30;99.90;;;;;;4995924;28;20070;-70
2023/01/28 04:12:59;;;;;;;22.40;12.80;;;5.30;99.90;;;;;;5007162;28;20025;-69
2023/01/28 04:15:24;;;;;;;22.73;13.00;;;5.10;99.90;;;;;;5000947;28;20026;-69
2023/01/28 04:17:50;;;;;;;22.48;12.75;;;5.20;99.90;;;;;;5000836;28;20069;-69
2023/01/28 04:20:17;;;;;;;19.45;11.48;;;5.20;99.90;;;;;;5015468;28;20041;-69
2023/01/28 04:22:42;;;;;;;23.73;12.60;;;5.20;99.90;;;;;;5015227;28;20104;-70
2023/01/28 04:25:09;;;;;;;20.92;12.25;;;5.20;99.90;;;;;;5015394;28;20458;-69
2023/01/28 04:27:34;;;;;;;23.33;12.75;;;5.20;99.90;;;;;;5015034;28;20417;-70
2023/01/28 04:30:00;;;;;;;21.52;13.18;;;5.20;99.90;;;;;;5015005;28;20037;-69
2023/01/28 04:32:25;;;;;;;21.17;12.80;;;5.20;99.90;;;;;;5001338;28;20066;-69
2023/01/28 04:34:51;;;;;;;22.35;12.65;;;5.10;99.90;;;;;;5007697;28;20036;-70
2023/01/28 04:37:17;;;;;;;22.83;13.88;;;5.20;99.90;;;;;;5015588;28;20488;-69
2023/01/28 04:39:42;;;;;;;19.98;11.70;;;5.20;99.90;;;;;;5013811;28;20072;-70
2023/01/28 04:42:08;;;;;;;21.95;13.05;;;5.10;99.90;;;;;;5013990;28;20105;-70
2023/01/28 04:44:33;;;;;;;20.75;12.55;;;5.20;99.90;;;;;;5014856;28;20080;-69
2023/01/28 04:46:59;;;;;;;23.15;13.65;;;5.20;99.90;;;;;;5006401;28;20049;-69
2023/01/28 04:49:25;;;;;;;23.45;13.68;;;5.20;99.90;;;;;;5008702;28;20029;-69
2023/01/28 04:51:50;;;;;;;24.17;13.45;;;5.00;99.90;;;;;;5014369;28;20036;-70
2023/01/28 04:54:16;;;;;;;22.60;13.60;;;5.00;99.90;;;;;;4995426;28;20022;-69
2023/01/28 04:56:41;;;;;;;24.30;14.05;;;5.00;99.90;;;;;;4995310;28;20105;-70
2023/01/28 04:59:07;;;;;;;22.33;13.75;;;5.00;99.90;;;;;;4994990;28;20022;-69
2023/01/28 05:01:33;;;;;;;24.13;13.30;;;5.10;99.90;;;;;;4994826;28;20026;-70
2023/01/28 05:04:04;;;;;;;22.88;13.75;;;5.10;99.90;;;;;;4998791;28;20382;-70
2023/01/28 05:06:32;;;;;;;23.02;13.85;;;5.10;99.90;;;;;;5029367;28;20046;-70
2023/01/28 05:08:58;;;;;;;24.25;14.20;;;5.10;99.90;;;;;;5013946;28;20029;-70
2023/01/28 05:11:24;;;;;;;23.27;14.40;;;5.10;99.90;;;;;;5013969;28;20390;-71
2023/01/28 05:13:50;;;;;;;22.80;13.90;;;5.20;99.90;;;;;;5029367;28;20021;-70
2023/01/28 05:16:15;;;;;;;24.00;14.38;;;5.20;99.90;;;;;;5013750;28;20037;-70
2023/01/28 05:18:41;;;;;;;25.00;14.90;;;5.20;99.90;;;;;;5013725;28;20022;-70
2023/01/28 05:21:07;;;;;;;27.15;14.98;;;5.20;99.90;;;;;;5014358;28;20036;-70
2023/01/28 05:23:32;;;;;;;23.50;13.90;;;5.20;99.90;;;;;;5007426;28;20030;-70
2023/01/28 05:25:58;;;;;;;21.85;12.95;;;5.20;99.90;;;;;;4994387;28;20492;-70
2023/01/28 05:28:24;;;;;;;22.42;13.50;;;5.20;99.90;;;;;;4994550;28;20022;-70
2023/01/28 05:30:49;;;;;;;23.65;14.55;;;5.10;99.90;;;;;;4994136;28;20475;-70
2023/01/28 05:33:15;;;;;;;22.00;13.00;;;5.20;99.90;;;;;;4992670;28;20041;-70
2023/01/28 05:35:42;;;;;;;21.90;13.27;;;5.10;99.90;;;;;;4993210;28;20034;-70
2023/01/28 05:38:08;;;;;;;21.42;13.30;;;5.10;99.90;;;;;;4994613;28;20027;-70
2023/01/28 05:40:34;;;;;;;22.10;13.60;;;5.10;99.90;;;;;;5011350;28;20030;-69
2023/01/28 05:42:59;;;;;;;21.38;13.13;;;5.10;99.90;;;;;;5013500;28;20549;-69
2023/01/28 05:45:25;;;;;;;21.38;13.55;;;5.00;99.90;;;;;;5013937;28;20360;-69
2023/01/28 05:47:50;;;;;;;24.25;13.93;;;5.10;99.90;;;;;;5013285;28;20097;-69
2023/01/28 05:50:16;;;;;;;23.30;13.63;;;5.10;99.90;;;;;;5014036;28;20107;-70
2023/01/28 05:52:42;;;;;;;23.58;13.88;;;5.20;99.90;;;;;;5013937;28;20022;-70
2023/01/28 05:55:08;;;;;;;21.67;12.75;;;5.10;99.90;;;;;;4994266;28;20034;-70
2023/01/28 05:57:34;;;;;;;24.73;13.93;;;5.10;99.90;;;;;;4994227;28;20391;-69
2023/01/28 05:59:59;;;;;;;21.58;13.32;;;5.10;99.90;;;;;;4994138;28;20030;-69
2023/01/28 06:02:25;;;;;;;21.20;12.57;;;5.00;99.90;;;;;;5004290;28;20034;-70
2023/01/28 06:04:50;;;;;;;21.30;12.38;;;5.00;99.90;;;;;;5012707;28;20477;-70
2023/01/28 06:07:19;;;;;;;19.88;12.50;;;4.80;99.90;;;;;;5011676;28;20030;-70
2023/01/28 06:09:46;;;;;;;18.02;11.50;;;4.90;99.90;;;;;;5013218;28;20033;-69
2023/01/28 06:12:11;;;;;;;19.05;12.80;;;4.90;99.90;;;;;;5013565;28;20032;-70
2023/01/28 06:14:37;;;;;;;19.48;12.55;;;5.00;99.90;;;;;;5012468;28;20395;-69
2023/01/28 06:17:02;;;;;;;20.55;12.75;;;4.90;99.90;;;;;;5013132;28;20030;-69
2023/01/28 06:19:28;;;;;;;18.95;12.15;;;4.90;99.90;;;;;;5013362;28;20470;-69
2023/01/28 06:21:53;;;;;;;21.55;12.45;;;4.90;99.90;;;;;;5013353;28;20446;-69
2023/01/28 06:24:19;;;;;;;18.17;11.80;;;4.90;99.90;;;;;;5011218;28;20033;-69
2023/01/28 06:26:45;;;;;;;20.25;11.60;;;5.00;99.90;;;;;;5013196;28;20470;-69
2023/01/28 06:29:11;;;;;;;18.70;11.38;;;4.90;99.90;;;;;;5001389;28;20034;-70
2023/01/28 06:31:36;;;;;;;19.38;12.75;;;5.00;99.90;;;;;;5001957;28;20046;-69
2023/01/28 06:34:02;;;;;;;20.63;12.45;;;5.00;99.90;;;;;;5003753;28;20014;-69
2023/01/28 06:36:28;;;;;;;19.70;12.15;;;5.00;99.90;;;;;;5003215;28;20022;-69
2023/01/28 06:38:54;;;;;;;17.90;11.00;;;5.00;99.90;;;;;;5001646;28;20505;-70
2023/01/28 06:41:19;;;;;;;21.25;13.00;;;5.00;99.90;;;;;;5003804;28;20018;-69
2023/01/28 06:43:45;;;;;;;19.98;12.85;;;5.10;99.90;;;;;;5005322;28;20033;-69
2023/01/28 06:46:10;;;;;;;18.40;12.95;;;5.10;99.90;;;;;;5006777;28;20038;-70
2023/01/28 06:48:36;;;;;;;18.85;11.60;;;5.10;99.90;;;;;;5012068;28;20034;-70
2023/01/28 06:51:02;;;;;;;20.35;13.38;;;5.10;99.90;;;;;;5012391;28;20036;-69
2023/01/28 06:53:27;;;;;;;21.08;12.90;;;5.10;99.90;;;;;;5010825;28;20107;-69
2023/01/28 06:55:53;;;;;;;19.55;12.25;;;5.20;99.90;;;;;;5011353;28;20168;-69
2023/01/28 06:58:18;;;;;;;19.35;12.50;;;5.20;99.90;;;;;;4999262;28;20037;-69
2023/01/28 07:00:44;;;;;;;19.40;11.50;;;5.10;99.90;;;;;;4993005;28;20383;-70
2023/01/28 07:03:10;;;;;;;19.10;12.07;;;5.20;99.90;;;;;;4992878;28;20041;-69
2023/01/28 07:05:36;;;;;;;19.23;11.88;;;5.10;99.90;;;;;;4993160;28;20045;-69
2023/01/28 07:08:01;;;;;;;19.85;12.85;;;5.10;99.90;;;;;;4992949;28;20027;-69
2023/01/28 07:10:27;;;;;;;17.98;12.00;;;5.10;99.90;;;;;;4992863;28;20077;-69
2023/01/28 07:12:53;;;;;;;22.92;13.57;;;5.10;99.90;;;;;;4992890;28;20374;-69
2023/01/28 07:15:19;;;;;;;18.30;12.18;;;5.10;99.90;;;;;;4995411;28;20101;-69
2023/01/28 07:17:44;;;;;;;19.02;12.25;;;5.10;99.90;;;;;;5012647;28;20022;-69
2023/01/28 07:20:13;;;;;;;20.05;13.50;;;5.10;99.90;;;;;;5012332;28;20069;-69
2023/01/28 07:22:41;;;;;;;20.20;13.05;;;5.10;99.90;;;;;;5011182;28;20076;-69
2023/01/28 07:25:07;;;;;;;21.55;13.50;;;5.10;99.90;;;;;;5012177;28;20458;-69
2023/01/28 07:27:33;;;;;;;21.40;12.60;;;5.10;99.90;;;;;;5012355;28;20029;-70
2023/01/28 07:29:58;;;;;;;20.20;11.73;;;5.00;99.90;;;;;;5012169;28;20113;-69
2023/01/28 07:32:26;;;;;;;19.65;12.93;;;5.00;99.90;;;;;;5011507;28;20099;-69
2023/01/28 07:34:52;;;;;;;23.50;12.18;;;4.90;99.90;;;;;;5012333;28;20486;-70
2023/01/28 07:37:17;;;;;;;20.58;12.00;;;4.90;99.90;;;;;;5008961;28;20057;-69
2023/01/28 07:39:43;;;;;;;19.58;12.30;;;4.90;99.90;;;;;;4992165;28;20018;-69
2023/01/28 07:42:09;;;;;;;20.65;12.85;;;5.00;99.90;;;;;;5002061;28;20034;-70
2023/01/28 07:44:35;;;;;;;17.13;11.80;;;4.90;99.90;;;;;;5010874;28;20430;-69
2023/01/28 07:47:05;;;;;;;16.98;11.32;;;4.90;99.90;;;;;;5000669;28;20117;-70
2023/01/28 07:49:32;;;;;;;17.92;12.07;;;4.80;99.90;;;;;;5015688;28;20026;-70
2023/01/28 07:51:57;;;;;;;16.20;11.25;;;4.80;99.90;;;;;;5015048;28;20030;-70
2023/01/28 07:54:23;;;;;;;15.85;10.38;;;4.80;99.90;;;;;;5013630;28;20096;-70
2023/01/28 07:56:48;;;;;;;16.85;10.45;;;4.80;99.90;;;;;;5000385;28;20030;-70
2023/01/28 07:59:14;;;;;;;16.65;11.15;;;4.90;99.90;;;;;;4996051;28;20492;-69
2023/01/28 08:01:40;;;;;;;16.20;10.85;;;4.90;99.90;;;;;;4996150;28;20070;-70
2023/01/28 08:04:05;;;;;;;18.70;10.70;;;5.00;99.90;;;;;;5000385;28;20103;-69
2023/01/28 08:06:36;;;;;;;14.55;10.00;;;5.00;99.90;;;;;;5008240;28;20026;-69
2023/01/28 08:09:07;;;;;;;15.15;10.15;;;5.00;99.90;;;;;;5015365;28;20355;-69
2023/01/28 08:11:35;;;;;;;14.23;9.77;;;5.00;99.90;;;;;;5014057;28;20220;-69
2023/01/28 08:14:00;;;;;;;13.75;9.90;;;4.90;99.90;;;;;;5015440;28;20036;-69
2023/01/28 08:16:27;;;;;;;15.50;10.23;;;4.90;99.90;;;;;;5016155;28;20108;-69
2023/01/28 08:18:53;;;;;;;16.95;10.23;;;4.90;99.90;;;;;;5014902;28;20018;-69
2023/01/28 08:21:18;;;;;;;15.30;10.88;;;4.90;99.90;;;;;;5009463;28;20550;-69
2023/01/28 08:23:44;;;;;;;15.25;10.27;;;4.90;99.90;;;;;;4993728;28;20093;-70
2023/01/28 08:26:09;;;;;;;18.40;10.38;;;4.90;99.90;;;;;;5005994;28;20030;-70
2023/01/28 08:28:35;;;;;;;16.45;11.23;;;4.90;99.90;;;;;;5014455;28;20034;-70
2023/01/28 08:31:01;;;;;;;17.20;12.15;;;4.90;99.90;;;;;;5013699;28;20367;-70
2023/01/28 08:33:27;;;;;;;18.48;11.18;;;4.90;99.90;;;;;;5010367;28;20549;-69
2023/01/28 08:35:52;;;;;;;18.30;11.23;;;5.00;99.90;;;;;;4994372;28;20030;-70
2023/01/28 08:38:19;;;;;;;16.27;10.70;;;5.00;99.90;;;;;;4995391;28;20021;-69
2023/01/28 08:40:45;;;;;;;14.27;9.98;;;5.10;99.90;;;;;;5002433;28;20033;-70
2023/01/28 08:43:11;;;;;;;17.17;11.10;;;5.10;99.90;;;;;;5014456;28;20204;-70
2023/01/28 08:45:39;;;;;;;14.68;9.80;;;5.10;99.90;;;;;;5014005;28;20036;-69
2023/01/28 08:48:07;;;;;;;17.08;11.32;;;5.10;99.90;;;;;;5014579;28;20072;-70
2023/01/28 08:50:35;;;;;;;16.35;11.15;;;5.00;99.90;;;;;;5014378;28;20060;-70
2023/01/28 08:53:04;;;;;;;14.75;10.70;;;5.00;99.90;;;;;;5012163;28;20025;-69
2023/01/28 08:55:30;;;;;;;16.17;10.95;;;5.00;99.90;;;;;;4996695;28;20027;-70
2023/01/28 08:57:56;;;;;;;16.80;11.45;;;5.00;99.90;;;;;;5003340;28;20030;-70
2023/01/28 09:00:22;;;;;;;18.25;11.65;;;5.00;99.90;;;;;;4995162;28;20053;-69
2023/01/28 09:02:51;;;;;;;16.35;10.80;;;5.00;99.90;;;;;;4994261;28;20045;-70
2023/01/28 09:05:17;;;;;;;16.40;10.85;;;5.00;99.90;;;;;;4993847;28;20383;-69
2023/01/28 09:07:43;;;;;;;17.83;10.88;;;5.00;99.90;;;;;;4994420;28;20033;-69
2023/01/28 09:10:09;;;;;;;16.27;11.02;;;5.00;99.90;;;;;;4994942;28;20038;-70
2023/01/28 09:12:36;;;;;;;20.02;11.52;;;5.00;99.90;;;;;;4994955;28;20030;-70
2023/01/28 09:15:02;;;;;;;16.58;10.82;;;5.00;99.90;;;;;;5004420;28;20403;-69
2023/01/28 09:17:28;;;;;;;17.13;11.30;;;5.00;99.90;;;;;;5005264;28;20022;-69
2023/01/28 09:19:53;;;;;;;15.10;10.30;;;5.00;99.90;;;;;;5004944;28;20022;-70
2023/01/28 09:22:19;;;;;;;17.50;11.02;;;5.00;99.90;;;;;;5002851;28;20490;-71
2023/01/28 09:24:45;;;;;;;17.25;11.07;;;4.90;99.90;;;;;;5001651;28;20041;-71
2023/01/28 09:27:11;;;;;;;22.73;11.50;;;4.90;99.90;;;;;;5006233;28;20044;-71
2023/01/28 09:29:37;;;;;;;17.58;11.88;;;4.80;99.90;;;;;;5003135;28;20029;-70
2023/01/28 09:32:04;;;;;;;15.57;10.75;;;4.90;99.90;;;;;;5003254;28;20050;-71
2023/01/28 09:34:29;;;;;;;16.92;11.38;;;4.90;99.90;;;;;;5005558;28;20022;-70
2023/01/28 09:36:55;;;;;;;17.00;11.18;;;4.90;99.90;;;;;;5009923;28;20370;-71
2023/01/28 09:39:21;;;;;;;17.77;11.45;;;4.90;99.90;;;;;;5013995;28;20149;-71
2023/01/28 09:42:29;;;;;;;16.02;10.25;;;4.90;99.90;;;;;;5013979;28;20049;-71
2023/01/28 09:45:16;;;;;;;17.73;10.95;;;4.90;99.90;;;;;;5014142;28;20030;-71
2023/01/28 09:47:56;;;;;;;17.13;10.73;;;5.00;99.90;;;;;;5001517;28;20026;-72
2023/01/28 09:50:38;;;;;;;18.10;11.43;;;5.00;99.90;;;;;;4993272;28;20035;-71
2023/01/28 09:53:11;;;;;;;19.42;11.77;;;5.00;99.90;;;;;;4990985;28;20030;-71
2023/01/28 09:55:43;;;;;;;18.85;11.35;;;5.00;99.90;;;;;;4993422;28;20030;-71
2023/01/28 09:58:14;;;;;;;16.40;10.40;;;4.90;99.90;;;;;;5012294;28;20071;-71
2023/01/28 10:01:02;;;;;;;18.17;11.83;;;4.70;99.90;;;;;;5013235;28;20030;-71
2023/01/28 10:03:36;;;;;;;19.17;11.88;;;4.90;99.90;;;;;;5013463;28;20610;-71
2023/01/28 10:06:21;;;;;;;18.73;12.45;;;4.90;99.90;;;;;;5010383;28;20095;-72
2023/01/28 10:09:00;;;;;;;17.23;11.25;;;5.00;99.90;;;;;;5005931;28;20026;-71
2023/01/28 10:11:28;;;;;;;18.52;11.80;;;4.90;99.90;;;;;;5001535;28;20073;-71
2023/01/28 10:14:24;;;;;;;17.58;11.57;;;5.00;99.90;;;;;;5012935;28;20097;-71
2023/01/28 10:16:56;;;;;;;19.80;12.43;;;5.00;99.90;;;;;;5012614;28;20022;-71
2023/01/28 10:19:28;;;;;;;18.13;11.05;;;5.00;99.90;;;;;;5012770;28;20033;-71
2023/01/28 10:22:05;;;;;;;18.35;12.07;;;5.00;99.90;;;;;;5011605;28;20093;-71
2023/01/28 10:24:35;;;;;;;18.85;11.68;;;4.90;99.90;;;;;;4991183;28;20503;-70
2023/01/28 10:27:20;;;;;;;15.52;11.18;;;5.00;99.90;;;;;;5000290;28;20072;-71
2023/01/28 10:29:48;;;;;;;16.73;11.35;;;5.00;99.90;;;;;;5012625;28;20065;-70
2023/01/28 10:32:30;;;;;;;21.35;11.93;;;4.90;99.90;;;;;;5008458;28;20065;-70
2023/01/28 10:35:01;;;;;;;16.90;10.55;;;5.00;99.90;;;;;;4993331;28;20041;-70
2023/01/28 10:37:32;;;;;;;17.42;10.93;;;4.90;99.90;;;;;;4994404;28;20041;-71
2023/01/28 10:40:00;;;;;;;16.92;11.27;;;4.80;99.90;;;;;;5005638;28;20030;-69
2023/01/28 10:42:32;;;;;;;19.60;12.23;;;4.80;99.90;;;;;;5011392;28;20474;-72
2023/01/28 10:45:25;;;;;;;18.88;11.73;;;4.90;99.90;;;;;;4998307;28;20034;-70
2023/01/28 10:48:02;;;;;;;17.88;11.02;;;4.90;99.90;;;;;;5009541;28;20041;-72
2023/01/28 10:50:30;;;;;;;15.48;10.27;;;4.90;99.90;;;;;;5012865;28;20034;-70
2023/01/28 10:52:58;;;;;;;17.05;11.38;;;4.90;99.90;;;;;;5010672;28;20033;-71
2023/01/28 10:55:32;;;;;;;16.52;10.27;;;5.00;99.90;;;;;;4992927;28;20089;-70
2023/01/28 10:57:58;;;;;;;18.85;11.57;;;4.90;99.90;;;;;;4992344;28;20499;-70
2023/01/28 11:00:34;;;;;;;17.10;10.88;;;4.90;99.90;;;;;;4991761;28;20037;-71
2023/01/28 11:03:00;;;;;;;18.25;11.73;;;4.90;99.90;;;;;;4991099;28;20026;-71
2023/01/28 11:05:28;;;;;;;19.33;12.05;;;4.90;99.90;;;;;;4993432;28;20093;-70
2023/01/28 11:08:14;;;;;;;17.30;11.20;;;4.90;99.90;;;;;;5006335;28;20026;-70
2023/01/28 11:10:40;;;;;;;18.45;11.55;;;4.90;99.90;;;;;;5010720;28;20042;-70
2023/01/28 11:13:31;;;;;;;19.25;11.80;;;4.90;99.90;;;;;;5006651;28;20053;-72
2023/01/28 11:16:13;;;;;;;17.77;11.27;;;4.90;99.90;;;;;;4992966;28;20022;-71
2023/01/28 11:18:47;;;;;;;18.20;10.82;;;4.80;99.90;;;;;;5013727;28;20022;-70
2023/01/28 11:21:23;;;;;;;19.50;11.98;;;4.80;99.90;;;;;;5014760;28;20018;-70
2023/01/28 11:23:59;;;;;;;18.85;11.38;;;4.80;99.90;;;;;;5015691;28;20026;-70
2023/01/28 11:26:35;;;;;;;20.27;12.23;;;4.90;99.90;;;;;;5014715;28;20022;-70
2023/01/28 11:29:00;;;;;;;19.45;11.82;;;4.90;99.90;;;;;;4995219;28;20034;-70
2023/01/28 11:31:27;;;;;;;18.25;12.13;;;5.00;99.90;;;;;;5004758;28;20045;-71
2023/01/28 11:33:58;;;;;;;20.85;12.45;;;5.00;99.90;;;;;;5016222;28;20029;-71
2023/01/28 11:36:33;;;;;;;18.70;11.65;;;5.00;99.90;;;;;;5015702;28;20033;-71
2023/01/28 11:39:24;;;;;;;18.85;11.60;;;5.10;99.90;;;;;;5014668;28;20052;-70
2023/01/28 11:41:50;;;;;;;19.98;11.98;;;5.10;99.90;;;;;;5015479;28;20030;-70
2023/01/28 11:44:21;;;;;;;19.33;11.77;;;5.10;99.90;;;;;;5008419;28;20487;-71
2023/01/28 11:47:21;;;;;;;18.75;12.63;;;5.20;99.90;;;;;;5010301;28;20030;-70
2023/01/28 11:49:58;;;;;;;20.83;12.43;;;5.10;99.90;;;;;;4988140;28;20042;-71
2023/01/28 11:52:39;;;;;;;18.63;11.95;;;5.20;99.90;;;;;;4996922;28;20030;-68
2023/01/28 11:55:26;;;;;;;19.67;12.48;;;5.10;99.90;;;;;;4996271;28;20026;-69
2023/01/28 11:57:55;;;;;;;18.80;12.45;;;5.20;99.90;;;;;;5009999;28;20026;-69
2023/01/28 12:00:30;;;;;;;20.65;12.50;;;5.20;99.90;;;;;;5013746;28;20034;-69
2023/01/28 12:03:32;;;;;;;20.00;12.27;;;5.10;99.90;;;;;;5014072;28;20544;-68
2023/01/28 12:06:13;;;;;;;17.70;11.93;;;5.10;99.90;;;;;;5007899;28;20054;-69
2023/01/28 12:08:56;;;;;;;19.70;13.07;;;5.10;99.90;;;;;;5015817;28;20045;-69
2023/01/28 12:12:10;;;;;;;;;;;5.10;99.90;;;;;;5014485;28;20033;-69
2023/01/28 12:14:22;;;;;;;19.58;12.02;;;5.20;99.90;;;;;;5012452;28;19912;-70
2023/01/28 12:16:56;;;;;;;21.48;13.48;;;5.20;99.90;;;;;;5006767;28;20026;-70
2023/01/28 12:19:32;;;;;;;22.00;13.02;;;5.30;99.90;;;;;;4996854;28;20365;-69
2023/01/28 12:22:15;;;;;;;20.25;13.18;;;5.20;99.90;;;;;;5013618;28;20032;-69
2023/01/28 12:25:11;;;;;;;21.67;13.15;;;5.30;99.90;;;;;;5013225;28;20022;-71
2023/01/28 12:28:08;;;;;;;19.80;12.85;;;5.20;99.90;;;;;;5014088;28;20033;-70
2023/01/28 12:31:22;;;;;;;20.77;12.95;;;5.10;99.90;;;;;;5012895;28;20038;-70
2023/01/28 12:33:55;;;;;;;;;;;4.90;99.90;;;;;;4998899;28;20136;-70
2023/01/28 12:36:27;;;;;;;;;;;4.90;99.90;;;;;;5015384;28;19906;-70
2023/01/28 12:39:30;;;;;;;22.02;13.40;;;5.00;99.90;;;;;;5015251;28;20378;-72
2023/01/28 12:42:33;;;;;;;21.83;13.38;;;5.10;99.90;;;;;;5012799;28;20022;-70
2023/01/28 12:45:23;;;;;;;20.23;12.38;;;5.20;99.90;;;;;;5013384;28;20509;-72
2023/01/28 12:48:02;;;;;;;20.65;12.25;;;5.20;99.90;;;;;;4997689;28;20113;-71
2023/01/28 12:50:37;;;;;;;22.05;12.90;;;5.20;99.90;;;;;;4995507;28;20035;-72
2023/01/28 12:53:33;;;;;;;20.10;12.40;;;5.30;99.90;;;;;;4996738;28;20045;-71
2023/01/28 12:56:28;;;;;;;21.88;12.85;;;5.20;99.90;;;;;;5006294;28;20030;-71
2023/01/28 12:59:24;;;;;;;18.60;12.00;;;5.20;99.90;;;;;;5000832;28;20038;-77
2023/01/28 13:02:05;;;;;;;19.80;12.10;;;5.30;99.90;;;;;;5000624;28;20054;-72
2023/01/28 13:05:12;;;;;;;18.20;11.57;;;5.30;99.90;;;;;;5003056;28;20033;-73
2023/01/28 13:07:46;;;;;;;21.02;11.65;;;5.30;99.90;;;;;;5006322;28;20053;-75
2023/01/28 13:10:23;;;;;;;20.05;11.98;;;5.40;99.90;;;;;;5013927;28;20656;-74
2023/01/28 13:12:49;;;;;;;20.45;12.15;;;5.30;99.90;;;;;;5013119;28;20018;-73
2023/01/28 13:15:18;;;;;;;21.13;13.18;;;5.20;99.90;;;;;;5013868;28;20026;-69
2023/01/28 13:18:03;;;;;;;20.40;12.90;;;5.20;99.90;;;;;;5013787;28;20055;-76
2023/01/28 13:20:46;;;;;;;19.95;12.05;;;5.30;99.90;;;;;;5014066;28;20120;-68
2023/01/28 13:23:45;;;;;;;21.38;13.02;;;5.30;99.90;;;;;;5004805;28;20356;-76
2023/01/28 13:26:17;;;;;;;19.63;12.07;;;5.40;99.90;;;;;;4993428;28;20546;-70
2023/01/28 13:28:43;;;;;;;20.63;11.47;;;5.50;99.90;;;;;;5013161;28;20109;-69
2023/01/28 13:31:20;;;;;;;21.35;12.15;;;5.50;99.90;;;;;;5009854;28;20041;-68
2023/01/28 13:33:55;;;;;;;19.58;11.98;;;5.50;99.90;;;;;;5008589;28;20030;-68